createdAt,value
2022-10-07T00:00:25.008Z,12.70
2022-10-07T00:04:09.830Z,12.70
2022-10-07T00:07:51.628Z,12.70
2022-10-07T00:11:34.051Z,12.70
2022-10-07T00:15:15.776Z,12.70
2022-10-07T00:19:02.525Z,12.70
2022-10-07T00:22:44.299Z,12.70
2022-10-07T00:26:29.563Z,12.70
2022-10-07T00:30:11.963Z,12.70
2022-10-07T00:33:54.884Z,12.70
2022-10-07T00:37:41.718Z,12.70
2022-10-07T00:41:29.980Z,12.70
2022-10-07T00:45:16.813Z,12.60
2022-10-07T00:49:13.448Z,12.60
2022-10-07T00:52:58.874Z,12.60
2022-10-07T00:56:42.397Z,12.50
2022-10-07T01:00:24.345Z,12.50
2022-10-07T01:04:06.135Z,12.40
2022-10-07T01:07:49.187Z,12.40
2022-10-07T01:12:10.659Z,12.40
2022-10-07T01:16:05.421Z,12.30
2022-10-07T01:20:10.026Z,12.30
2022-10-07T01:24:17.484Z,12.30
2022-10-07T01:28:18.753Z,12.30
2022-10-07T01:32:11.496Z,12.30
2022-10-07T01:35:55.233Z,12.30
2022-10-07T01:39:42.159Z,12.20
2022-10-07T01:43:23.870Z,12.20
2022-10-07T01:47:07.431Z,12.20
2022-10-07T01:50:50.673Z,12.30
2022-10-07T01:55:03.941Z,12.30
2022-10-07T01:59:05.414Z,12.20
2022-10-07T02:03:21.347Z,12.10
2022-10-07T02:07:21.484Z,12.20
2022-10-07T02:11:12.714Z,12.20
2022-10-07T02:15:05.346Z,12.20
2022-10-07T02:18:51.378Z,12.20
2022-10-07T02:22:34.862Z,12.20
2022-10-07T02:26:21.234Z,12.30
2022-10-07T02:30:09.930Z,12.20
2022-10-07T02:33:54.070Z,12.30
2022-10-07T02:37:37.865Z,12.30
2022-10-07T02:41:44.458Z,12.30
2022-10-07T02:45:37.565Z,12.30
2022-10-07T02:49:23.471Z,12.30
2022-10-07T02:53:06.095Z,12.30
2022-10-07T02:56:50.091Z,12.30
2022-10-07T03:00:35.682Z,12.40
2022-10-07T03:04:18.662Z,12.30
2022-10-07T03:08:07.329Z,12.40
2022-10-07T03:11:49.500Z,12.40
2022-10-07T03:15:39.757Z,12.40
2022-10-07T03:19:23.883Z,12.40
2022-10-07T03:23:05.695Z,12.40
2022-10-07T03:26:47.419Z,12.40
2022-10-07T03:30:29.108Z,12.40
2022-10-07T03:34:11.110Z,12.40
2022-10-07T03:37:54.142Z,12.40
2022-10-07T03:41:37.022Z,12.40
2022-10-07T03:45:20.814Z,12.40
2022-10-07T03:49:03.352Z,12.40
2022-10-07T03:52:45.641Z,12.40
2022-10-07T03:56:27.423Z,12.40
2022-10-07T04:00:09.574Z,12.40
2022-10-07T04:03:51.628Z,12.40
2022-10-07T04:07:33.458Z,12.30
2022-10-07T04:11:15.158Z,12.30
2022-10-07T04:14:56.926Z,12.30
2022-10-07T04:18:38.976Z,12.30
2022-10-07T04:22:20.685Z,12.30
2022-10-07T04:26:06.842Z,12.30
2022-10-07T04:29:48.533Z,12.30
2022-10-07T04:33:30.434Z,12.30
2022-10-07T04:37:12.662Z,12.40
2022-10-07T04:40:54.509Z,12.30
2022-10-07T04:44:36.207Z,12.30
2022-10-07T04:48:19.092Z,12.40
2022-10-07T04:52:00.788Z,12.40
2022-10-07T04:55:51.490Z,12.40
2022-10-07T04:59:34.480Z,12.40
2022-10-07T05:03:18.212Z,12.40
2022-10-07T05:06:59.918Z,12.50
2022-10-07T05:10:42.538Z,12.60
2022-10-07T05:14:24.300Z,12.60
2022-10-07T05:18:07.125Z,12.70
2022-10-07T05:21:48.868Z,12.70
2022-10-07T05:25:30.551Z,12.60
2022-10-07T05:29:12.383Z,12.60
2022-10-07T05:32:54.517Z,12.50
2022-10-07T05:36:36.268Z,12.40
2022-10-07T05:40:17.991Z,12.30
2022-10-07T05:44:00.183Z,12.30
2022-10-07T05:47:42.293Z,12.20
2022-10-07T05:51:25.529Z,12.20
2022-10-07T05:55:07.713Z,12.20
2022-10-07T05:58:52.190Z,12.20
2022-10-07T06:02:34.392Z,12.20
2022-10-07T06:06:16.318Z,12.20
2022-10-07T06:10:16.773Z,12.20
2022-10-07T06:13:58.993Z,12.30
2022-10-07T06:17:45.325Z,12.30
2022-10-07T06:21:28.203Z,12.30
2022-10-07T06:25:10.290Z,12.30
2022-10-07T06:28:52.033Z,12.40
2022-10-07T06:32:33.707Z,12.40
2022-10-07T06:36:15.586Z,12.40
2022-10-07T06:39:59.615Z,12.40
2022-10-07T06:43:41.653Z,12.50
2022-10-07T06:47:23.637Z,12.50
2022-10-07T06:51:06.091Z,12.50
2022-10-07T06:54:47.762Z,12.60
2022-10-07T06:58:29.880Z,12.60
2022-10-07T07:02:11.663Z,12.60
2022-10-07T07:05:55.125Z,12.70
2022-10-07T07:09:37.085Z,12.60
2022-10-07T07:13:18.961Z,12.60
2022-10-07T07:17:00.856Z,12.60
2022-10-07T07:20:42.637Z,12.50
2022-10-07T07:24:24.397Z,12.50
2022-10-07T07:28:07.721Z,12.50
2022-10-07T07:31:50.983Z,12.50
2022-10-07T07:35:37.454Z,12.50
2022-10-07T07:39:19.829Z,12.60
2022-10-07T07:43:02.437Z,12.70
2022-10-07T07:46:48.373Z,12.80
2022-10-07T07:50:30.093Z,13.00
2022-10-07T07:54:12.705Z,13.20
2022-10-07T07:57:54.427Z,13.40
2022-10-07T08:01:36.218Z,13.50
2022-10-07T08:05:23.495Z,13.70
2022-10-07T08:09:05.966Z,13.80
2022-10-07T08:12:47.753Z,13.90
2022-10-07T08:16:30.109Z,14.00
2022-10-07T08:20:11.817Z,14.00
2022-10-07T08:23:58.208Z,14.10
2022-10-07T08:27:39.890Z,14.30
2022-10-07T08:31:22.656Z,14.40
2022-10-07T08:35:04.825Z,14.40
2022-10-07T08:38:49.754Z,14.50
2022-10-07T08:42:38.861Z,14.50
2022-10-07T08:46:32.310Z,14.60
2022-10-07T08:50:18.328Z,14.80
2022-10-07T08:54:01.212Z,15.10
2022-10-07T08:58:04.396Z,15.10
2022-10-07T09:02:21.659Z,15.20
2022-10-07T09:06:13.967Z,15.80
2022-10-07T09:10:20.883Z,16.30
2022-10-07T09:14:46.373Z,16.70
2022-10-07T09:18:35.137Z,16.80
2022-10-07T09:22:21.495Z,17.20
2022-10-07T09:26:10.968Z,17.70
2022-10-07T09:29:52.824Z,18.10
2022-10-07T09:33:42.899Z,18.40
2022-10-07T09:37:27.467Z,18.30
2022-10-07T09:41:31.299Z,18.30
2022-10-07T09:45:25.086Z,18.50
2022-10-07T09:49:07.662Z,18.50
2022-10-07T09:52:55.844Z,18.60
2022-10-07T09:56:43.070Z,18.90
2022-10-07T10:00:27.129Z,19.30
2022-10-07T10:04:19.811Z,19.80
2022-10-07T10:08:19.225Z,20.30
2022-10-07T10:12:02.491Z,20.70
2022-10-07T10:15:44.915Z,20.80
2022-10-07T10:19:27.537Z,20.80
2022-10-07T10:23:35.684Z,20.90
2022-10-07T10:27:44.743Z,21.20
2022-10-07T10:31:46.723Z,21.60
2022-10-07T10:35:47.700Z,22.00
2022-10-07T10:39:52.571Z,22.20
2022-10-07T10:43:42.829Z,22.50
2022-10-07T10:47:33.767Z,22.70
2022-10-07T10:51:54.656Z,23.00
2022-10-07T10:56:00.538Z,23.50
2022-10-07T10:59:51.311Z,23.90
2022-10-07T11:03:43.365Z,24.30
2022-10-07T11:07:44.166Z,24.30
2022-10-07T11:11:27.832Z,23.90
2022-10-07T11:15:33.837Z,23.70
2022-10-07T11:19:26.222Z,23.70
2022-10-07T11:23:21.518Z,23.30
2022-10-07T11:27:21.491Z,22.90
2022-10-07T11:31:26.954Z,23.30
2022-10-07T11:35:31.309Z,23.90
2022-10-07T11:39:13.108Z,24.50
2022-10-07T11:42:57.628Z,24.30
2022-10-07T11:46:43.076Z,23.70
2022-10-07T11:50:31.351Z,23.10
2022-10-07T11:54:17.801Z,22.30
2022-10-07T11:58:02.151Z,21.40
2022-10-07T12:01:51.294Z,20.70
2022-10-07T12:05:36.087Z,20.30
2022-10-07T12:10:13.429Z,20.40
2022-10-07T12:13:55.553Z,20.50
2022-10-07T12:17:37.278Z,21.00
2022-10-07T12:21:19.036Z,21.70
2022-10-07T12:25:42.649Z,21.90
2022-10-07T12:29:45.519Z,21.30
2022-10-07T12:33:41.028Z,20.80
2022-10-07T12:37:40.733Z,20.80
2022-10-07T12:41:40.445Z,21.70
2022-10-07T12:45:24.369Z,22.40
2022-10-07T12:49:15.194Z,22.80
2022-10-07T12:53:00.866Z,22.80
2022-10-07T12:56:44.247Z,22.40
2022-10-07T13:00:26.357Z,22.00
2022-10-07T13:04:38.795Z,22.00
2022-10-07T13:08:40.173Z,21.60
2022-10-07T13:12:34.989Z,21.00
2022-10-07T13:16:36.774Z,21.10
2022-10-07T13:20:43.013Z,21.60
2022-10-07T13:24:26.283Z,22.30
2022-10-07T13:28:16.439Z,23.40
2022-10-07T13:32:14.222Z,24.10
2022-10-07T13:36:20.822Z,24.10
2022-10-07T13:40:34.009Z,24.30
2022-10-07T13:44:19.358Z,24.50
2022-10-07T13:48:01.204Z,24.10
2022-10-07T13:51:43.097Z,23.50
2022-10-07T13:55:36.085Z,23.10
2022-10-07T13:59:19.328Z,22.90
2022-10-07T14:03:01.883Z,22.90
2022-10-07T14:06:49.078Z,23.00
2022-10-07T14:10:33.238Z,23.20
2022-10-07T14:14:22.967Z,23.00
2022-10-07T14:18:04.630Z,22.40
2022-10-07T14:21:46.772Z,21.90
2022-10-07T14:25:31.777Z,21.30
2022-10-07T14:29:29.682Z,20.90
2022-10-07T14:33:45.462Z,20.50
2022-10-07T14:37:31.696Z,20.10
2022-10-07T14:41:16.573Z,19.70
2022-10-07T14:44:58.660Z,19.30
2022-10-07T14:48:40.388Z,18.90
2022-10-07T14:52:29.681Z,18.40
2022-10-07T14:56:15.140Z,17.80
2022-10-07T14:59:56.910Z,17.30
2022-10-07T15:03:38.730Z,16.90
2022-10-07T15:07:21.615Z,16.40
2022-10-07T15:11:07.030Z,16.10
2022-10-07T15:14:49.133Z,15.70
2022-10-07T15:18:31.897Z,15.40
2022-10-07T15:22:15.254Z,15.10
2022-10-07T15:25:57.749Z,14.90
2022-10-07T15:29:40.334Z,14.70
2022-10-07T15:33:22.256Z,14.60
2022-10-07T15:37:05.333Z,14.50
2022-10-07T15:40:57.476Z,14.50
2022-10-07T15:44:45.242Z,14.50
2022-10-07T15:48:29.931Z,14.50
2022-10-07T15:52:12.182Z,14.50
2022-10-07T15:55:56.646Z,14.50
2022-10-07T15:59:38.508Z,14.40
2022-10-07T16:03:20.239Z,14.40
2022-10-07T16:07:02.018Z,14.40
2022-10-07T16:10:43.841Z,14.80
2022-10-07T16:14:25.649Z,15.30
2022-10-07T16:18:07.616Z,15.20
2022-10-07T16:21:49.316Z,15.10
2022-10-07T16:25:31.018Z,15.20
2022-10-07T16:29:37.722Z,15.50
2022-10-07T16:33:19.634Z,15.60
2022-10-07T16:37:01.336Z,15.40
2022-10-07T16:40:52.601Z,15.20
2022-10-07T16:44:34.370Z,15.20
2022-10-07T16:48:17.392Z,15.20
2022-10-07T16:51:59.184Z,15.10
2022-10-07T16:55:41.820Z,14.90
2022-10-07T16:59:25.035Z,14.70
2022-10-07T17:03:07.249Z,14.50
2022-10-07T17:06:49.327Z,14.30
2022-10-07T17:10:31.904Z,14.20
2022-10-07T17:14:16.798Z,14.10
2022-10-07T17:17:58.558Z,14.00
2022-10-07T17:21:41.981Z,13.90
2022-10-07T17:25:23.750Z,13.90
2022-10-07T17:29:07.765Z,13.70
2022-10-07T17:32:54.126Z,13.60
2022-10-07T17:36:35.923Z,13.50
2022-10-07T17:40:17.612Z,13.40
2022-10-07T17:44:01.876Z,13.30
2022-10-07T17:47:44.060Z,13.30
2022-10-07T17:51:28.858Z,13.30
2022-10-07T17:55:10.558Z,13.30
2022-10-07T17:58:52.415Z,13.40
2022-10-07T18:02:35.102Z,13.40
2022-10-07T18:06:17.169Z,13.40
2022-10-07T18:09:58.912Z,13.40
2022-10-07T18:13:59.055Z,13.40
2022-10-07T18:17:40.850Z,13.40
2022-10-07T18:21:24.412Z,13.40
2022-10-07T18:25:06.945Z,13.40
2022-10-07T18:28:48.731Z,13.30
2022-10-07T18:32:30.591Z,13.20
2022-10-07T18:36:18.774Z,13.10
2022-10-07T18:40:00.823Z,13.00
2022-10-07T18:43:44.109Z,13.00
2022-10-07T18:47:25.906Z,12.90
2022-10-07T18:51:07.967Z,12.80
2022-10-07T18:54:49.711Z,12.70
2022-10-07T18:58:39.320Z,12.60
2022-10-07T19:02:21.070Z,12.50
2022-10-07T19:06:08.637Z,12.40
2022-10-07T19:09:50.330Z,12.30
2022-10-07T19:13:48.454Z,12.30
2022-10-07T19:17:31.309Z,12.20
2022-10-07T19:21:13.825Z,12.10
2022-10-07T19:25:14.125Z,12.10
2022-10-07T19:28:55.899Z,12.00
2022-10-07T19:32:37.663Z,11.90
2022-10-07T19:36:21.172Z,11.90
2022-10-07T19:40:03.005Z,11.80
2022-10-07T19:43:46.879Z,11.80
2022-10-07T19:47:28.577Z,11.70
2022-10-07T19:51:12.846Z,11.70
2022-10-07T19:54:54.934Z,11.60
2022-10-07T19:58:43.189Z,11.70
2022-10-07T20:02:25.059Z,11.60
2022-10-07T20:06:07.742Z,11.50
2022-10-07T20:09:49.579Z,11.50
2022-10-07T20:13:32.792Z,11.50
2022-10-07T20:17:14.549Z,11.50
2022-10-07T20:21:01.137Z,11.40
2022-10-07T20:24:43.133Z,11.40
2022-10-07T20:28:25.449Z,11.40
2022-10-07T20:32:07.341Z,11.40
2022-10-07T20:35:53.197Z,11.40
2022-10-07T20:39:53.462Z,11.30
2022-10-07T20:43:35.179Z,11.20
2022-10-07T20:47:17.633Z,11.20
2022-10-07T20:51:06.752Z,11.20
2022-10-07T20:54:49.425Z,11.20
2022-10-07T20:58:32.754Z,11.30
2022-10-07T21:02:16.236Z,11.20
2022-10-07T21:05:59.071Z,11.20
2022-10-07T21:09:41.021Z,11.20
2022-10-07T21:13:22.725Z,11.20
2022-10-07T21:17:05.267Z,11.10
2022-10-07T21:20:56.795Z,11.10
2022-10-07T21:24:39.280Z,11.10
2022-10-07T21:28:21.132Z,11.10
2022-10-07T21:32:03.545Z,11.10
2022-10-07T21:35:45.255Z,11.00
2022-10-07T21:39:27.095Z,11.00
2022-10-07T21:43:08.798Z,10.90
2022-10-07T21:46:50.688Z,10.80
2022-10-07T21:50:32.611Z,10.80
2022-10-07T21:54:15.328Z,10.70
2022-10-07T21:57:57.587Z,10.70
2022-10-07T22:01:39.456Z,10.70
2022-10-07T22:05:21.252Z,10.60
2022-10-07T22:09:04.287Z,10.60
2022-10-07T22:12:46.199Z,10.50
2022-10-07T22:16:29.015Z,10.60
2022-10-07T22:20:10.750Z,10.50
2022-10-07T22:23:53.730Z,10.50
2022-10-07T22:27:35.439Z,10.50
2022-10-07T22:31:18.900Z,10.50
2022-10-07T22:35:19.219Z,10.50
2022-10-07T22:39:01.446Z,10.50
2022-10-07T22:42:46.835Z,10.50
2022-10-07T22:46:29.049Z,10.50
2022-10-07T22:50:11.013Z,10.40
2022-10-07T22:53:55.005Z,10.40
2022-10-07T22:57:36.797Z,10.30
2022-10-07T23:01:19.478Z,10.30
2022-10-07T23:05:01.558Z,10.30
2022-10-07T23:08:44.153Z,10.20
2022-10-07T23:12:25.921Z,10.10
2022-10-07T23:16:13.716Z,10.10
2022-10-07T23:19:55.549Z,10.10
2022-10-07T23:23:38.932Z,10.00
2022-10-07T23:27:20.670Z,10.00
2022-10-07T23:31:11.369Z,9.90
2022-10-07T23:34:55.937Z,9.80
2022-10-07T23:38:39.639Z,9.80
2022-10-07T23:42:21.403Z,9.70
2022-10-07T23:46:05.831Z,9.70
2022-10-07T23:49:47.553Z,9.60
2022-10-07T23:53:30.145Z,9.60
2022-10-07T23:57:11.798Z,9.50
